Fremont, Minnesota
Current Conditions -  °F | °C
As of 9:34 PM on Friday 19 Dec 2014 (Local Time) from KONA Reporting Station
Overcast Overcast  
Wind Chill: 25°   Ceiling: 3700
Heat Index: 30°   Visibility: 10mi
Dew Point: 23°   Wind: 5mph
Humidity: 75%   Direction: 150°SSE
Pressure: 30.23"   Gusts: NA
Location:  43.9439°N, 91.933°W
Report Text: KONA 200334Z AUTO 15004KT 10SM SCT021 OVC037 M01/M05 A3023 RMK AO2
Loading
Personal Weather Stations






























Interactive Weather Map New forecast layout! Learn more

10-Day Weather Forecast

Advertisements
Track Severe Weather on mobile